sensor_id;sensor_type;location;lat;lon;timestamp;P1;durP1;ratioP1;P2;durP2;ratioP2
83560;SDS011;73534;52.584;13.392;2023-12-20T00:02:21;12.30;;;8.52;;
83560;SDS011;73534;52.584;13.392;2023-12-20T00:04:47;9.60;;;6.90;;
83560;SDS011;73534;52.584;13.392;2023-12-20T00:07:12;10.40;;;6.63;;
83560;SDS011;73534;52.584;13.392;2023-12-20T00:09:37;10.38;;;7.03;;
83560;SDS011;73534;52.584;13.392;2023-12-20T00:12:02;9.40;;;7.32;;
83560;SDS011;73534;52.584;13.392;2023-12-20T00:14:28;10.18;;;7.45;;
83560;SDS011;73534;52.584;13.392;2023-12-20T00:16:53;8.98;;;6.38;;
83560;SDS011;73534;52.584;13.392;2023-12-20T00:19:18;10.50;;;7.18;;
83560;SDS011;73534;52.584;13.392;2023-12-20T00:21:44;9.30;;;6.55;;
83560;SDS011;73534;52.584;13.392;2023-12-20T00:24:09;9.73;;;6.50;;
83560;SDS011;73534;52.584;13.392;2023-12-20T00:26:34;10.63;;;6.82;;
83560;SDS011;73534;52.584;13.392;2023-12-20T00:28:59;10.07;;;7.07;;
83560;SDS011;73534;52.584;13.392;2023-12-20T00:31:25;9.70;;;7.03;;
83560;SDS011;73534;52.584;13.392;2023-12-20T00:33:50;9.30;;;6.22;;
83560;SDS011;73534;52.584;13.392;2023-12-20T00:36:15;9.43;;;6.80;;
83560;SDS011;73534;52.584;13.392;2023-12-20T00:38:41;11.27;;;7.65;;
83560;SDS011;73534;52.584;13.392;2023-12-20T00:41:06;10.88;;;6.75;;
83560;SDS011;73534;52.584;13.392;2023-12-20T00:43:31;11.27;;;7.30;;
83560;SDS011;73534;52.584;13.392;2023-12-20T00:45:57;10.60;;;7.00;;
83560;SDS011;73534;52.584;13.392;2023-12-20T00:48:22;8.63;;;6.60;;
83560;SDS011;73534;52.584;13.392;2023-12-20T00:50:47;9.48;;;7.03;;
83560;SDS011;73534;52.584;13.392;2023-12-20T00:53:13;10.43;;;7.13;;
83560;SDS011;73534;52.584;13.392;2023-12-20T00:55:38;8.45;;;5.78;;
83560;SDS011;73534;52.584;13.392;2023-12-20T00:58:03;9.73;;;6.93;;
83560;SDS011;73534;52.584;13.392;2023-12-20T01:00:29;10.95;;;7.80;;
83560;SDS011;73534;52.584;13.392;2023-12-20T01:02:54;10.32;;;7.35;;
83560;SDS011;73534;52.584;13.392;2023-12-20T01:05:19;9.73;;;7.28;;
83560;SDS011;73534;52.584;13.392;2023-12-20T01:07:47;10.75;;;7.22;;
83560;SDS011;73534;52.584;13.392;2023-12-20T01:10:13;10.10;;;7.25;;
83560;SDS011;73534;52.584;13.392;2023-12-20T01:12:38;10.95;;;7.47;;
83560;SDS011;73534;52.584;13.392;2023-12-20T01:15:04;9.73;;;7.07;;
83560;SDS011;73534;52.584;13.392;2023-12-20T01:17:29;10.05;;;7.43;;
83560;SDS011;73534;52.584;13.392;2023-12-20T01:19:55;10.27;;;7.07;;
83560;SDS011;73534;52.584;13.392;2023-12-20T01:22:20;11.25;;;7.43;;
83560;SDS011;73534;52.584;13.392;2023-12-20T01:24:45;11.20;;;7.63;;
83560;SDS011;73534;52.584;13.392;2023-12-20T01:27:11;10.80;;;6.53;;
83560;SDS011;73534;52.584;13.392;2023-12-20T01:29:36;10.85;;;7.32;;
83560;SDS011;73534;52.584;13.392;2023-12-20T01:32:01;9.50;;;7.05;;
83560;SDS011;73534;52.584;13.392;2023-12-20T01:34:27;9.55;;;6.53;;
83560;SDS011;73534;52.584;13.392;2023-12-20T01:36:52;8.88;;;6.50;;
83560;SDS011;73534;52.584;13.392;2023-12-20T01:39:17;9.82;;;6.97;;
83560;SDS011;73534;52.584;13.392;2023-12-20T01:41:43;8.90;;;6.63;;
83560;SDS011;73534;52.584;13.392;2023-12-20T01:44:08;9.98;;;6.70;;
83560;SDS011;73534;52.584;13.392;2023-12-20T01:46:33;8.93;;;6.10;;
83560;SDS011;73534;52.584;13.392;2023-12-20T01:48:59;9.07;;;6.45;;
83560;SDS011;73534;52.584;13.392;2023-12-20T01:51:24;7.88;;;5.97;;
83560;SDS011;73534;52.584;13.392;2023-12-20T01:53:50;8.52;;;5.82;;
83560;SDS011;73534;52.584;13.392;2023-12-20T01:56:15;9.85;;;6.13;;
83560;SDS011;73534;52.584;13.392;2023-12-20T01:58:44;9.70;;;5.97;;
83560;SDS011;73534;52.584;13.392;2023-12-20T02:01:11;7.90;;;6.05;;
83560;SDS011;73534;52.584;13.392;2023-12-20T02:03:36;7.30;;;5.43;;
83560;SDS011;73534;52.584;13.392;2023-12-20T02:06:02;8.35;;;5.45;;
83560;SDS011;73534;52.584;13.392;2023-12-20T02:08:29;8.63;;;5.18;;
83560;SDS011;73534;52.584;13.392;2023-12-20T02:10:55;7.85;;;4.78;;
83560;SDS011;73534;52.584;13.392;2023-12-20T02:13:21;7.38;;;5.07;;
83560;SDS011;73534;52.584;13.392;2023-12-20T02:15:46;7.18;;;5.35;;
83560;SDS011;73534;52.584;13.392;2023-12-20T02:18:11;7.20;;;4.72;;
83560;SDS011;73534;52.584;13.392;2023-12-20T02:20:40;5.57;;;4.05;;
83560;SDS011;73534;52.584;13.392;2023-12-20T02:23:05;5.80;;;3.70;;
83560;SDS011;73534;52.584;13.392;2023-12-20T02:25:30;5.28;;;3.95;;
83560;SDS011;73534;52.584;13.392;2023-12-20T02:27:56;6.43;;;3.97;;
83560;SDS011;73534;52.584;13.392;2023-12-20T02:30:21;5.88;;;3.97;;
83560;SDS011;73534;52.584;13.392;2023-12-20T02:32:47;5.28;;;3.60;;
83560;SDS011;73534;52.584;13.392;2023-12-20T02:35:12;5.75;;;3.10;;
83560;SDS011;73534;52.584;13.392;2023-12-20T02:37:37;6.32;;;3.53;;
83560;SDS011;73534;52.584;13.392;2023-12-20T02:40:03;3.92;;;2.97;;
83560;SDS011;73534;52.584;13.392;2023-12-20T02:42:29;4.88;;;3.30;;
83560;SDS011;73534;52.584;13.392;2023-12-20T02:44:54;4.47;;;2.65;;
83560;SDS011;73534;52.584;13.392;2023-12-20T02:47:20;7.90;;;3.58;;
83560;SDS011;73534;52.584;13.392;2023-12-20T02:49:45;4.90;;;2.67;;
83560;SDS011;73534;52.584;13.392;2023-12-20T02:52:10;6.22;;;2.97;;
83560;SDS011;73534;52.584;13.392;2023-12-20T02:54:35;5.35;;;3.17;;
83560;SDS011;73534;52.584;13.392;2023-12-20T02:57:01;5.00;;;2.95;;
83560;SDS011;73534;52.584;13.392;2023-12-20T02:59:26;8.02;;;3.70;;
83560;SDS011;73534;52.584;13.392;2023-12-20T03:01:51;5.28;;;3.30;;
83560;SDS011;73534;52.584;13.392;2023-12-20T03:04:17;2.67;;;2.30;;
83560;SDS011;73534;52.584;13.392;2023-12-20T03:06:42;2.83;;;2.40;;
83560;SDS011;73534;52.584;13.392;2023-12-20T03:09:07;6.03;;;3.17;;
83560;SDS011;73534;52.584;13.392;2023-12-20T03:11:33;7.45;;;2.60;;
83560;SDS011;73534;52.584;13.392;2023-12-20T03:13:58;3.05;;;2.42;;
83560;SDS011;73534;52.584;13.392;2023-12-20T03:16:23;4.88;;;3.03;;
83560;SDS011;73534;52.584;13.392;2023-12-20T03:18:49;4.13;;;2.63;;
83560;SDS011;73534;52.584;13.392;2023-12-20T03:21:14;5.40;;;2.90;;
83560;SDS011;73534;52.584;13.392;2023-12-20T03:23:40;5.03;;;2.78;;
83560;SDS011;73534;52.584;13.392;2023-12-20T03:26:08;7.28;;;2.95;;
83560;SDS011;73534;52.584;13.392;2023-12-20T03:28:34;5.45;;;3.00;;
83560;SDS011;73534;52.584;13.392;2023-12-20T03:30:59;6.00;;;2.90;;
83560;SDS011;73534;52.584;13.392;2023-12-20T03:33:25;5.88;;;2.88;;
83560;SDS011;73534;52.584;13.392;2023-12-20T03:35:50;4.43;;;2.65;;
83560;SDS011;73534;52.584;13.392;2023-12-20T03:38:15;5.65;;;3.00;;
83560;SDS011;73534;52.584;13.392;2023-12-20T03:40:41;8.63;;;3.00;;
83560;SDS011;73534;52.584;13.392;2023-12-20T03:43:06;3.90;;;2.40;;
83560;SDS011;73534;52.584;13.392;2023-12-20T03:45:31;6.72;;;2.78;;
83560;SDS011;73534;52.584;13.392;2023-12-20T03:47:56;6.30;;;2.70;;
83560;SDS011;73534;52.584;13.392;2023-12-20T03:50:22;3.38;;;2.60;;
83560;SDS011;73534;52.584;13.392;2023-12-20T03:52:47;7.13;;;2.72;;
83560;SDS011;73534;52.584;13.392;2023-12-20T03:55:13;4.65;;;2.75;;
83560;SDS011;73534;52.584;13.392;2023-12-20T03:57:38;9.13;;;3.25;;
83560;SDS011;73534;52.584;13.392;2023-12-20T04:00:04;7.90;;;3.30;;
83560;SDS011;73534;52.584;13.392;2023-12-20T04:02:30;6.13;;;2.70;;
83560;SDS011;73534;52.584;13.392;2023-12-20T04:04:55;5.85;;;3.33;;
83560;SDS011;73534;52.584;13.392;2023-12-20T04:07:21;5.80;;;3.50;;
83560;SDS011;73534;52.584;13.392;2023-12-20T04:09:47;5.65;;;3.03;;
83560;SDS011;73534;52.584;13.392;2023-12-20T04:12:13;5.35;;;3.17;;
83560;SDS011;73534;52.584;13.392;2023-12-20T04:14:38;6.70;;;2.60;;
83560;SDS011;73534;52.584;13.392;2023-12-20T04:17:03;6.18;;;3.30;;
83560;SDS011;73534;52.584;13.392;2023-12-20T04:19:29;6.38;;;2.95;;
83560;SDS011;73534;52.584;13.392;2023-12-20T04:21:54;6.18;;;2.78;;
83560;SDS011;73534;52.584;13.392;2023-12-20T04:24:19;7.38;;;3.28;;
83560;SDS011;73534;52.584;13.392;2023-12-20T04:26:44;4.70;;;2.83;;
83560;SDS011;73534;52.584;13.392;2023-12-20T04:29:10;6.18;;;3.42;;
83560;SDS011;73534;52.584;13.392;2023-12-20T04:31:35;6.55;;;3.22;;
83560;SDS011;73534;52.584;13.392;2023-12-20T04:34:00;7.32;;;2.95;;
83560;SDS011;73534;52.584;13.392;2023-12-20T04:36:25;6.32;;;2.83;;
83560;SDS011;73534;52.584;13.392;2023-12-20T04:38:51;5.35;;;3.03;;
83560;SDS011;73534;52.584;13.392;2023-12-20T04:41:17;3.60;;;2.63;;
83560;SDS011;73534;52.584;13.392;2023-12-20T04:43:43;6.13;;;2.92;;
83560;SDS011;73534;52.584;13.392;2023-12-20T04:46:09;4.25;;;2.72;;
83560;SDS011;73534;52.584;13.392;2023-12-20T04:48:34;9.00;;;2.67;;
83560;SDS011;73534;52.584;13.392;2023-12-20T04:50:59;4.82;;;3.13;;
83560;SDS011;73534;52.584;13.392;2023-12-20T04:53:24;6.07;;;2.53;;
83560;SDS011;73534;52.584;13.392;2023-12-20T04:55:50;6.97;;;2.65;;
83560;SDS011;73534;52.584;13.392;2023-12-20T04:58:16;7.97;;;2.95;;
83560;SDS011;73534;52.584;13.392;2023-12-20T05:00:41;6.55;;;2.60;;
83560;SDS011;73534;52.584;13.392;2023-12-20T05:03:06;9.88;;;3.40;;
83560;SDS011;73534;52.584;13.392;2023-12-20T05:05:32;6.25;;;2.78;;
83560;SDS011;73534;52.584;13.392;2023-12-20T05:07:58;6.75;;;2.20;;
83560;SDS011;73534;52.584;13.392;2023-12-20T05:10:23;5.97;;;3.05;;
83560;SDS011;73534;52.584;13.392;2023-12-20T05:12:48;6.95;;;3.00;;
83560;SDS011;73534;52.584;13.392;2023-12-20T05:15:13;5.38;;;2.88;;
83560;SDS011;73534;52.584;13.392;2023-12-20T05:17:39;6.57;;;3.28;;
83560;SDS011;73534;52.584;13.392;2023-12-20T05:20:04;7.55;;;3.08;;
83560;SDS011;73534;52.584;13.392;2023-12-20T05:22:30;7.28;;;3.08;;
83560;SDS011;73534;52.584;13.392;2023-12-20T05:24:56;9.35;;;3.42;;
83560;SDS011;73534;52.584;13.392;2023-12-20T05:27:21;8.00;;;3.50;;
83560;SDS011;73534;52.584;13.392;2023-12-20T05:29:47;9.30;;;3.70;;
83560;SDS011;73534;52.584;13.392;2023-12-20T05:32:12;6.78;;;3.47;;
83560;SDS011;73534;52.584;13.392;2023-12-20T05:34:37;9.60;;;4.25;;
83560;SDS011;73534;52.584;13.392;2023-12-20T05:37:03;7.63;;;3.70;;
83560;SDS011;73534;52.584;13.392;2023-12-20T05:39:28;9.40;;;3.35;;
83560;SDS011;73534;52.584;13.392;2023-12-20T05:41:53;5.68;;;2.95;;
83560;SDS011;73534;52.584;13.392;2023-12-20T05:44:19;5.35;;;2.72;;
83560;SDS011;73534;52.584;13.392;2023-12-20T05:46:44;6.15;;;3.00;;
83560;SDS011;73534;52.584;13.392;2023-12-20T05:49:09;6.15;;;3.03;;
83560;SDS011;73534;52.584;13.392;2023-12-20T05:51:35;8.60;;;3.50;;
83560;SDS011;73534;52.584;13.392;2023-12-20T05:54:01;8.05;;;3.00;;
83560;SDS011;73534;52.584;13.392;2023-12-20T05:56:26;6.57;;;3.10;;
83560;SDS011;73534;52.584;13.392;2023-12-20T05:58:51;9.40;;;3.60;;
83560;SDS011;73534;52.584;13.392;2023-12-20T06:01:16;10.48;;;3.63;;
83560;SDS011;73534;52.584;13.392;2023-12-20T06:03:42;7.55;;;3.22;;
83560;SDS011;73534;52.584;13.392;2023-12-20T06:06:07;10.38;;;4.22;;
83560;SDS011;73534;52.584;13.392;2023-12-20T06:08:33;5.20;;;2.78;;
83560;SDS011;73534;52.584;13.392;2023-12-20T06:10:59;7.65;;;3.90;;
83560;SDS011;73534;52.584;13.392;2023-12-20T06:13:24;7.57;;;3.35;;
83560;SDS011;73534;52.584;13.392;2023-12-20T06:15:49;5.55;;;2.75;;
83560;SDS011;73534;52.584;13.392;2023-12-20T06:18:15;6.38;;;2.90;;
83560;SDS011;73534;52.584;13.392;2023-12-20T06:20:40;6.28;;;2.97;;
83560;SDS011;73534;52.584;13.392;2023-12-20T06:23:05;7.70;;;3.42;;
83560;SDS011;73534;52.584;13.392;2023-12-20T06:25:30;4.82;;;3.10;;
83560;SDS011;73534;52.584;13.392;2023-12-20T06:27:56;9.73;;;3.25;;
83560;SDS011;73534;52.584;13.392;2023-12-20T06:30:21;10.25;;;3.15;;
83560;SDS011;73534;52.584;13.392;2023-12-20T06:32:46;7.65;;;3.03;;
83560;SDS011;73534;52.584;13.392;2023-12-20T06:35:12;11.85;;;3.50;;
83560;SDS011;73534;52.584;13.392;2023-12-20T06:37:37;5.07;;;3.25;;
83560;SDS011;73534;52.584;13.392;2023-12-20T06:40:07;5.43;;;3.00;;
83560;SDS011;73534;52.584;13.392;2023-12-20T06:42:33;5.35;;;3.22;;
83560;SDS011;73534;52.584;13.392;2023-12-20T06:44:58;7.18;;;3.72;;
83560;SDS011;73534;52.584;13.392;2023-12-20T06:47:23;12.00;;;3.85;;
83560;SDS011;73534;52.584;13.392;2023-12-20T06:49:49;10.52;;;3.47;;
83560;SDS011;73534;52.584;13.392;2023-12-20T06:52:14;5.90;;;3.30;;
83560;SDS011;73534;52.584;13.392;2023-12-20T06:54:39;4.78;;;3.78;;
83560;SDS011;73534;52.584;13.392;2023-12-20T06:57:05;6.60;;;3.55;;
83560;SDS011;73534;52.584;13.392;2023-12-20T06:59:30;11.25;;;3.55;;
83560;SDS011;73534;52.584;13.392;2023-12-20T07:01:55;7.05;;;3.33;;
83560;SDS011;73534;52.584;13.392;2023-12-20T07:04:20;8.15;;;3.10;;
83560;SDS011;73534;52.584;13.392;2023-12-20T07:06:49;5.93;;;3.15;;
83560;SDS011;73534;52.584;13.392;2023-12-20T07:09:21;9.02;;;3.72;;
83560;SDS011;73534;52.584;13.392;2023-12-20T07:11:47;8.23;;;4.13;;
83560;SDS011;73534;52.584;13.392;2023-12-20T07:14:12;6.72;;;3.38;;
83560;SDS011;73534;52.584;13.392;2023-12-20T07:16:38;8.80;;;3.55;;
83560;SDS011;73534;52.584;13.392;2023-12-20T07:19:03;11.07;;;3.72;;
83560;SDS011;73534;52.584;13.392;2023-12-20T07:21:29;9.02;;;4.03;;
83560;SDS011;73534;52.584;13.392;2023-12-20T07:23:54;6.07;;;3.40;;
83560;SDS011;73534;52.584;13.392;2023-12-20T07:26:19;8.65;;;3.13;;
83560;SDS011;73534;52.584;13.392;2023-12-20T07:28:45;6.40;;;4.05;;
83560;SDS011;73534;52.584;13.392;2023-12-20T07:31:11;5.95;;;3.00;;
83560;SDS011;73534;52.584;13.392;2023-12-20T07:33:36;6.43;;;3.38;;
83560;SDS011;73534;52.584;13.392;2023-12-20T07:36:01;8.75;;;3.47;;
83560;SDS011;73534;52.584;13.392;2023-12-20T07:38:27;8.40;;;3.42;;
83560;SDS011;73534;52.584;13.392;2023-12-20T07:40:52;6.93;;;3.53;;
83560;SDS011;73534;52.584;13.392;2023-12-20T07:43:17;6.32;;;4.43;;
83560;SDS011;73534;52.584;13.392;2023-12-20T07:45:43;8.57;;;4.25;;
83560;SDS011;73534;52.584;13.392;2023-12-20T07:48:08;7.75;;;3.30;;
83560;SDS011;73534;52.584;13.392;2023-12-20T07:50:33;7.28;;;3.45;;
83560;SDS011;73534;52.584;13.392;2023-12-20T07:52:59;9.50;;;3.03;;
83560;SDS011;73534;52.584;13.392;2023-12-20T07:55:25;6.28;;;3.20;;
83560;SDS011;73534;52.584;13.392;2023-12-20T07:57:51;12.30;;;3.65;;
83560;SDS011;73534;52.584;13.392;2023-12-20T08:00:17;6.40;;;3.15;;
83560;SDS011;73534;52.584;13.392;2023-12-20T08:02:42;7.32;;;3.13;;
83560;SDS011;73534;52.584;13.392;2023-12-20T08:05:08;8.88;;;3.13;;
83560;SDS011;73534;52.584;13.392;2023-12-20T08:07:33;6.90;;;2.90;;
83560;SDS011;73534;52.584;13.392;2023-12-20T08:09:58;9.35;;;2.95;;
83560;SDS011;73534;52.584;13.392;2023-12-20T08:12:23;12.10;;;3.33;;
83560;SDS011;73534;52.584;13.392;2023-12-20T08:14:52;9.02;;;3.42;;
83560;SDS011;73534;52.584;13.392;2023-12-20T08:17:17;6.70;;;3.13;;
83560;SDS011;73534;52.584;13.392;2023-12-20T08:19:44;5.30;;;2.92;;
83560;SDS011;73534;52.584;13.392;2023-12-20T08:22:09;10.98;;;3.70;;
83560;SDS011;73534;52.584;13.392;2023-12-20T08:24:34;9.90;;;4.28;;
83560;SDS011;73534;52.584;13.392;2023-12-20T08:26:59;6.65;;;2.92;;
83560;SDS011;73534;52.584;13.392;2023-12-20T08:29:25;7.18;;;2.88;;
83560;SDS011;73534;52.584;13.392;2023-12-20T08:31:53;7.22;;;3.17;;
83560;SDS011;73534;52.584;13.392;2023-12-20T08:34:22;13.13;;;3.70;;
83560;SDS011;73534;52.584;13.392;2023-12-20T08:36:48;9.52;;;3.92;;
83560;SDS011;73534;52.584;13.392;2023-12-20T08:39:14;6.57;;;3.25;;
83560;SDS011;73534;52.584;13.392;2023-12-20T08:41:40;9.77;;;3.15;;
83560;SDS011;73534;52.584;13.392;2023-12-20T08:44:05;7.47;;;3.08;;
83560;SDS011;73534;52.584;13.392;2023-12-20T08:46:30;5.30;;;3.15;;
83560;SDS011;73534;52.584;13.392;2023-12-20T08:48:56;13.90;;;3.40;;
83560;SDS011;73534;52.584;13.392;2023-12-20T08:51:21;8.38;;;3.35;;
83560;SDS011;73534;52.584;13.392;2023-12-20T08:53:48;7.10;;;3.60;;
83560;SDS011;73534;52.584;13.392;2023-12-20T08:56:14;9.93;;;3.05;;
83560;SDS011;73534;52.584;13.392;2023-12-20T08:58:39;5.55;;;2.65;;
83560;SDS011;73534;52.584;13.392;2023-12-20T09:01:05;4.80;;;2.78;;
83560;SDS011;73534;52.584;13.392;2023-12-20T09:03:30;7.60;;;3.00;;
83560;SDS011;73534;52.584;13.392;2023-12-20T09:05:55;8.15;;;3.08;;
83560;SDS011;73534;52.584;13.392;2023-12-20T09:08:21;8.02;;;3.20;;
83560;SDS011;73534;52.584;13.392;2023-12-20T09:10:46;8.20;;;2.92;;
83560;SDS011;73534;52.584;13.392;2023-12-20T09:13:12;5.13;;;3.33;;
83560;SDS011;73534;52.584;13.392;2023-12-20T09:15:37;10.25;;;3.20;;
83560;SDS011;73534;52.584;13.392;2023-12-20T09:18:02;10.30;;;3.47;;
83560;SDS011;73534;52.584;13.392;2023-12-20T09:20:28;7.75;;;2.72;;
83560;SDS011;73534;52.584;13.392;2023-12-20T09:22:53;8.45;;;3.03;;
83560;SDS011;73534;52.584;13.392;2023-12-20T09:25:19;9.15;;;3.38;;
83560;SDS011;73534;52.584;13.392;2023-12-20T09:27:44;7.93;;;3.13;;
83560;SDS011;73534;52.584;13.392;2023-12-20T09:30:09;7.25;;;3.08;;
83560;SDS011;73534;52.584;13.392;2023-12-20T09:32:35;5.10;;;4.32;;
83560;SDS011;73534;52.584;13.392;2023-12-20T09:35:00;4.60;;;2.72;;
83560;SDS011;73534;52.584;13.392;2023-12-20T09:37:26;6.00;;;3.22;;
83560;SDS011;73534;52.584;13.392;2023-12-20T09:39:51;8.90;;;3.45;;
83560;SDS011;73534;52.584;13.392;2023-12-20T09:42:18;7.47;;;2.97;;
83560;SDS011;73534;52.584;13.392;2023-12-20T09:44:48;9.77;;;3.45;;
83560;SDS011;73534;52.584;13.392;2023-12-20T09:47:14;12.50;;;3.53;;
83560;SDS011;73534;52.584;13.392;2023-12-20T09:49:40;7.22;;;3.97;;
83560;SDS011;73534;52.584;13.392;2023-12-20T09:52:07;6.75;;;3.10;;
83560;SDS011;73534;52.584;13.392;2023-12-20T09:56:59;7.80;;;2.88;;
83560;SDS011;73534;52.584;13.392;2023-12-20T09:59:24;5.40;;;3.53;;
83560;SDS011;73534;52.584;13.392;2023-12-20T10:01:50;7.30;;;3.33;;
83560;SDS011;73534;52.584;13.392;2023-12-20T10:04:16;9.57;;;3.45;;
83560;SDS011;73534;52.584;13.392;2023-12-20T10:06:42;6.15;;;2.80;;
83560;SDS011;73534;52.584;13.392;2023-12-20T10:09:08;7.03;;;2.70;;
83560;SDS011;73534;52.584;13.392;2023-12-20T10:11:35;6.78;;;3.33;;
83560;SDS011;73534;52.584;13.392;2023-12-20T10:14:02;8.95;;;2.92;;
83560;SDS011;73534;52.584;13.392;2023-12-20T10:16:28;7.90;;;3.10;;
83560;SDS011;73534;52.584;13.392;2023-12-20T10:18:53;10.60;;;3.40;;
83560;SDS011;73534;52.584;13.392;2023-12-20T10:21:19;7.32;;;3.72;;
83560;SDS011;73534;52.584;13.392;2023-12-20T10:23:45;11.07;;;3.42;;
83560;SDS011;73534;52.584;13.392;2023-12-20T10:26:10;5.80;;;3.15;;
83560;SDS011;73534;52.584;13.392;2023-12-20T10:28:44;12.07;;;3.30;;
83560;SDS011;73534;52.584;13.392;2023-12-20T10:31:09;7.88;;;3.20;;
83560;SDS011;73534;52.584;13.392;2023-12-20T10:33:34;9.48;;;3.25;;
83560;SDS011;73534;52.584;13.392;2023-12-20T10:36:00;10.13;;;3.97;;
83560;SDS011;73534;52.584;13.392;2023-12-20T10:38:25;6.45;;;3.25;;
83560;SDS011;73534;52.584;13.392;2023-12-20T10:40:53;7.38;;;3.22;;
83560;SDS011;73534;52.584;13.392;2023-12-20T10:43:19;6.28;;;3.28;;
83560;SDS011;73534;52.584;13.392;2023-12-20T10:45:45;6.68;;;3.08;;
83560;SDS011;73534;52.584;13.392;2023-12-20T10:48:11;6.63;;;3.03;;
83560;SDS011;73534;52.584;13.392;2023-12-20T10:50:37;7.65;;;3.83;;
83560;SDS011;73534;52.584;13.392;2023-12-20T10:53:05;8.15;;;3.60;;
83560;SDS011;73534;52.584;13.392;2023-12-20T10:55:31;8.80;;;3.17;;
83560;SDS011;73534;52.584;13.392;2023-12-20T10:58:00;10.75;;;3.90;;
83560;SDS011;73534;52.584;13.392;2023-12-20T11:00:26;7.70;;;3.42;;
83560;SDS011;73534;52.584;13.392;2023-12-20T11:02:53;11.35;;;3.50;;
83560;SDS011;73534;52.584;13.392;2023-12-20T11:10:48;9.85;;;4.05;;
83560;SDS011;73534;52.584;13.392;2023-12-20T11:13:22;6.82;;;3.47;;
83560;SDS011;73534;52.584;13.392;2023-12-20T11:15:50;8.20;;;4.07;;
83560;SDS011;73534;52.584;13.392;2023-12-20T11:18:16;8.85;;;3.67;;
83560;SDS011;73534;52.584;13.392;2023-12-20T11:20:41;9.88;;;3.63;;
83560;SDS011;73534;52.584;13.392;2023-12-20T11:23:10;8.05;;;2.90;;
83560;SDS011;73534;52.584;13.392;2023-12-20T11:28:23;7.78;;;3.88;;
83560;SDS011;73534;52.584;13.392;2023-12-20T11:30:49;8.88;;;3.97;;
83560;SDS011;73534;52.584;13.392;2023-12-20T11:33:22;8.48;;;3.83;;
83560;SDS011;73534;52.584;13.392;2023-12-20T11:35:48;8.45;;;3.70;;
83560;SDS011;73534;52.584;13.392;2023-12-20T11:38:14;8.98;;;4.00;;
83560;SDS011;73534;52.584;13.392;2023-12-20T11:40:41;10.95;;;3.70;;
83560;SDS011;73534;52.584;13.392;2023-12-20T11:43:06;10.30;;;3.40;;
83560;SDS011;73534;52.584;13.392;2023-12-20T11:45:32;9.05;;;3.35;;
83560;SDS011;73534;52.584;13.392;2023-12-20T11:47:59;8.10;;;4.05;;
83560;SDS011;73534;52.584;13.392;2023-12-20T11:50:25;11.15;;;4.55;;
83560;SDS011;73534;52.584;13.392;2023-12-20T11:52:51;7.43;;;3.42;;
83560;SDS011;73534;52.584;13.392;2023-12-20T11:55:18;9.32;;;4.15;;
83560;SDS011;73534;52.584;13.392;2023-12-20T11:57:43;9.32;;;3.45;;
83560;SDS011;73534;52.584;13.392;2023-12-20T12:00:09;6.63;;;3.38;;
83560;SDS011;73534;52.584;13.392;2023-12-20T12:02:35;12.48;;;4.07;;
83560;SDS011;73534;52.584;13.392;2023-12-20T12:05:01;12.85;;;3.15;;
83560;SDS011;73534;52.584;13.392;2023-12-20T12:07:26;7.32;;;3.20;;
83560;SDS011;73534;52.584;13.392;2023-12-20T12:09:51;6.50;;;2.92;;
83560;SDS011;73534;52.584;13.392;2023-12-20T12:12:17;8.10;;;3.42;;
83560;SDS011;73534;52.584;13.392;2023-12-20T12:14:45;6.65;;;3.08;;
83560;SDS011;73534;52.584;13.392;2023-12-20T12:17:11;4.82;;;2.95;;
83560;SDS011;73534;52.584;13.392;2023-12-20T12:19:38;5.40;;;3.38;;
83560;SDS011;73534;52.584;13.392;2023-12-20T12:22:10;8.57;;;3.70;;
83560;SDS011;73534;52.584;13.392;2023-12-20T12:24:39;6.00;;;3.63;;
83560;SDS011;73534;52.584;13.392;2023-12-20T12:27:08;8.52;;;3.42;;
83560;SDS011;73534;52.584;13.392;2023-12-20T12:29:34;8.95;;;3.35;;
83560;SDS011;73534;52.584;13.392;2023-12-20T12:32:00;5.22;;;2.95;;
83560;SDS011;73534;52.584;13.392;2023-12-20T12:34:28;11.65;;;3.97;;
83560;SDS011;73534;52.584;13.392;2023-12-20T12:36:54;7.57;;;3.53;;
83560;SDS011;73534;52.584;13.392;2023-12-20T12:39:19;6.03;;;3.42;;
83560;SDS011;73534;52.584;13.392;2023-12-20T12:41:45;6.72;;;3.72;;
83560;SDS011;73534;52.584;13.392;2023-12-20T12:44:10;6.82;;;3.38;;
83560;SDS011;73534;52.584;13.392;2023-12-20T12:46:35;8.25;;;3.88;;
83560;SDS011;73534;52.584;13.392;2023-12-20T12:49:01;9.93;;;4.20;;
83560;SDS011;73534;52.584;13.392;2023-12-20T12:51:26;8.23;;;3.53;;
83560;SDS011;73534;52.584;13.392;2023-12-20T12:53:51;7.57;;;4.03;;
83560;SDS011;73534;52.584;13.392;2023-12-20T12:56:16;7.05;;;4.07;;
83560;SDS011;73534;52.584;13.392;2023-12-20T12:58:42;11.43;;;3.78;;
83560;SDS011;73534;52.584;13.392;2023-12-20T13:01:08;7.15;;;4.53;;
83560;SDS011;73534;52.584;13.392;2023-12-20T13:03:33;7.32;;;4.25;;
83560;SDS011;73534;52.584;13.392;2023-12-20T13:06:00;7.50;;;4.07;;
83560;SDS011;73534;52.584;13.392;2023-12-20T13:08:25;9.82;;;3.78;;
83560;SDS011;73534;52.584;13.392;2023-12-20T13:10:51;7.85;;;3.88;;
83560;SDS011;73534;52.584;13.392;2023-12-20T13:13:16;7.82;;;4.28;;
83560;SDS011;73534;52.584;13.392;2023-12-20T13:15:41;5.95;;;3.38;;
83560;SDS011;73534;52.584;13.392;2023-12-20T13:18:07;9.85;;;4.70;;
83560;SDS011;73534;52.584;13.392;2023-12-20T13:20:32;4.40;;;3.13;;
83560;SDS011;73534;52.584;13.392;2023-12-20T13:23:00;6.55;;;3.35;;
83560;SDS011;73534;52.584;13.392;2023-12-20T13:25:32;6.40;;;3.10;;
83560;SDS011;73534;52.584;13.392;2023-12-20T13:27:59;9.30;;;3.80;;
83560;SDS011;73534;52.584;13.392;2023-12-20T13:30:24;3.75;;;2.42;;
83560;SDS011;73534;52.584;13.392;2023-12-20T13:32:50;3.90;;;2.17;;
83560;SDS011;73534;52.584;13.392;2023-12-20T13:35:15;3.90;;;2.60;;
83560;SDS011;73534;52.584;13.392;2023-12-20T13:37:40;4.72;;;2.08;;
83560;SDS011;73534;52.584;13.392;2023-12-20T13:40:06;4.78;;;2.58;;
83560;SDS011;73534;52.584;13.392;2023-12-20T13:42:32;2.70;;;2.38;;
83560;SDS011;73534;52.584;13.392;2023-12-20T13:44:57;4.03;;;2.42;;
83560;SDS011;73534;52.584;13.392;2023-12-20T13:47:23;5.05;;;2.20;;
83560;SDS011;73534;52.584;13.392;2023-12-20T13:49:48;4.85;;;2.95;;
83560;SDS011;73534;52.584;13.392;2023-12-20T13:52:13;2.25;;;1.90;;
83560;SDS011;73534;52.584;13.392;2023-12-20T13:54:39;2.75;;;2.03;;
83560;SDS011;73534;52.584;13.392;2023-12-20T13:57:04;1.88;;;1.75;;
83560;SDS011;73534;52.584;13.392;2023-12-20T13:59:29;2.10;;;1.90;;
83560;SDS011;73534;52.584;13.392;2023-12-20T14:01:55;2.55;;;2.08;;
83560;SDS011;73534;52.584;13.392;2023-12-20T14:04:22;2.10;;;1.83;;
83560;SDS011;73534;52.584;13.392;2023-12-20T14:06:47;3.53;;;2.03;;
83560;SDS011;73534;52.584;13.392;2023-12-20T14:09:12;4.68;;;2.35;;
83560;SDS011;73534;52.584;13.392;2023-12-20T14:11:38;2.55;;;1.90;;
83560;SDS011;73534;52.584;13.392;2023-12-20T14:14:06;2.97;;;2.30;;
83560;SDS011;73534;52.584;13.392;2023-12-20T14:16:32;3.28;;;2.35;;
83560;SDS011;73534;52.584;13.392;2023-12-20T14:18:58;3.90;;;2.20;;
83560;SDS011;73534;52.584;13.392;2023-12-20T14:21:23;2.42;;;1.67;;
83560;SDS011;73534;52.584;13.392;2023-12-20T14:23:49;2.33;;;1.55;;
83560;SDS011;73534;52.584;13.392;2023-12-20T14:26:14;2.15;;;1.48;;
83560;SDS011;73534;52.584;13.392;2023-12-20T14:28:42;3.13;;;1.98;;
83560;SDS011;73534;52.584;13.392;2023-12-20T14:31:08;2.00;;;1.80;;
83560;SDS011;73534;52.584;13.392;2023-12-20T14:33:35;2.50;;;2.25;;
83560;SDS011;73534;52.584;13.392;2023-12-20T14:36:00;2.20;;;1.98;;